Airfield :
LOGIN :

Register | Disclaimer

   EN    FR    IT 

 










Legend :    VFR   Marginal VFR   IFR   Intensive IFR   Very Intensive IFR
Visi :
Ceiling :
>= 8 km
>= 3000ft
5 to 8 km
1000 to 3000 ft
1500m to 5 km
500 to 1000 ft
800 to 1500m
200 to 500 ft
< 800m
< 200 ft
Symbols :   Thunderstorms  Fog  Heavy snow  Heavy precipitations  Wind > 20 kt
SIGMETs :     Misc.  Thunderstorms  Icing  Turbulence  Mountain Waves  Volcanic Ashes







- Airport Elevation : 364 ft
- Download approach charts


LFAQ - Albert Bray

CURRENT METAR :
  • 181730Z AUTO 24012KT 9999 FEW049/// BKN074/// BKN094/// ///TCU 07/05 Q1003 TEMPO 28020G30KT 4000 SHRA BKN030CB

EXPIRED METARs :
  • 181700Z AUTO 26011KT 9999 FEW027 BKN066 OVC086 07/05 Q1004 TEMPO 28020G30KT 4000 SHRA BKN030CB
  • 181630Z AUTO 26012KT 9999 BKN028 BKN043 BKN068 07/05 Q1004 TEMPO 28020G30KT 4000 SHRA BKN030CB
  • 181600Z AUTO 26012KT 9999 FEW026 SCT086 BKN100 07/04 Q1004 TEMPO 28020G30KT 4000 SHRA BKN030CB
  • 181530Z AUTO 27016KT 9999 SCT031 BKN090 08/04 Q1004 TEMPO 28020G30KT 4000 SHRA BKN030CB
  • 181500Z AUTO 27015KT 9999 FEW032 SCT068 BKN084 08/04 Q1004 TEMPO 28020G30KT 4000 SHRA BKN030CB

TAF TAF LFAQ
Valid from the 18 at 15:00 until the 19 at 00:00 UTC


181400Z 1815/1824 28016KT 9999 SCT030
TEMPO 1815/1821 28020G30KT 4000 SHRA BKN030CB
No reported NOTAMs for that airfield.



MET'MAP, your aeronautical weather chart ! - Copyright ORBIFLY December 2007 - Disclaimer

ORBIFLY MET'MAP TEAM :

Programming & Development : Alexandra Zaïnal
Concept & Development : Baudouin d'Aumeries
Co-Development & Prog : Marc-Olivier Méhu
Technical & hardware support : Manuel Goepfert

Contact : metmap@orbifly.com




SOURCES & CREDITS :

   NOAA